Time;durP1;ratioP1;P1;durP2;ratioP2;P2;SDS_P1;SDS_P2;PMS_P1;PMS_P2;Temp;Humidity;BMP_temperature;BMP_pressure;BME280_temperature;BME280_humidity;BME280_pressure;Samples;Min_cycle;Max_cycle;Signal;HPM_P1;HPM_P2
2021/11/25 00:00:32;;;;;;;7.07;2.85;;;4.00;92.40;;;;;;4939002;29;20059;-86
2021/11/25 00:02:58;;;;;;;5.30;2.92;;;4.00;92.40;;;;;;4940021;29;20040;-86
2021/11/25 00:05:25;;;;;;;5.60;2.63;;;4.00;92.40;;;;;;4944083;29;20134;-86
2021/11/25 00:07:50;;;;;;;6.68;3.33;;;3.90;92.40;;;;;;4942131;29;20526;-86
2021/11/25 00:10:16;;;;;;;6.55;2.72;;;3.80;92.40;;;;;;4941926;29;20035;-86
2021/11/25 00:12:43;;;;;;;6.82;3.65;;;3.80;92.50;;;;;;4941710;29;20039;-85
2021/11/25 00:15:10;;;;;;;4.32;3.10;;;3.70;92.60;;;;;;4941652;29;20051;-86
2021/11/25 00:17:36;;;;;;;6.28;2.92;;;3.60;92.70;;;;;;4941805;29;20039;-86
2021/11/25 00:20:05;;;;;;;5.88;2.63;;;3.50;92.80;;;;;;4941966;29;20131;-86
2021/11/25 00:22:30;;;;;;;3.40;2.45;;;3.50;92.90;;;;;;4941913;29;20449;-86
2021/11/25 00:24:56;;;;;;;8.98;2.88;;;3.40;92.90;;;;;;4942170;29;20031;-86
2021/11/25 00:27:23;;;;;;;4.35;2.58;;;3.30;93.00;;;;;;4958286;29;20035;-86
2021/11/25 00:29:49;;;;;;;7.18;2.95;;;3.30;93.10;;;;;;4957950;28;20391;-85
2021/11/25 00:32:14;;;;;;;6.20;3.13;;;3.20;93.20;;;;;;4941649;29;20035;-86
2021/11/25 00:34:40;;;;;;;5.95;3.22;;;3.20;93.20;;;;;;4959008;29;20043;-86
2021/11/25 00:37:06;;;;;;;5.65;3.25;;;3.10;93.30;;;;;;4941770;29;20046;-86
2021/11/25 00:39:32;;;;;;;8.60;3.47;;;3.00;93.40;;;;;;4957285;28;20039;-86
2021/11/25 00:41:58;;;;;;;6.35;2.53;;;3.00;93.50;;;;;;4941638;29;20167;-86
2021/11/25 00:44:24;;;;;;;7.53;3.88;;;2.90;93.60;;;;;;4941690;29;20090;-86
2021/11/25 00:46:50;;;;;;;5.85;2.70;;;2.90;93.70;;;;;;4938340;29;20055;-86
2021/11/25 00:49:16;;;;;;;5.90;3.08;;;2.80;93.70;;;;;;4938626;29;20032;-86
2021/11/25 00:51:41;;;;;;;7.43;2.85;;;2.80;93.80;;;;;;4938185;29;20099;-86
2021/11/25 00:54:07;;;;;;;3.30;2.30;;;2.70;93.90;;;;;;4938428;29;20165;-86
2021/11/25 00:56:33;;;;;;;4.13;2.63;;;2.70;93.90;;;;;;4938332;29;20454;-86
2021/11/25 00:58:59;;;;;;;3.72;2.50;;;2.70;94.00;;;;;;4938452;29;20471;-86
2021/11/25 01:01:24;;;;;;;4.40;2.70;;;2.60;94.00;;;;;;4938196;29;20036;-86
2021/11/25 01:03:50;;;;;;;3.85;2.33;;;2.60;94.10;;;;;;4938470;29;20509;-86
2021/11/25 01:06:16;;;;;;;6.55;2.70;;;2.60;94.20;;;;;;4938072;29;20046;-86
2021/11/25 01:08:42;;;;;;;2.42;2.22;;;2.50;94.20;;;;;;4938065;29;20387;-86
2021/11/25 01:11:09;;;;;;;6.57;2.75;;;2.50;94.20;;;;;;4937819;29;20047;-86
2021/11/25 01:13:35;;;;;;;4.78;2.72;;;2.50;94.40;;;;;;4937297;29;20040;-86
2021/11/25 01:16:01;;;;;;;6.32;3.25;;;2.50;94.40;;;;;;4937403;29;20454;-86
2021/11/25 01:18:27;;;;;;;6.03;2.42;;;2.50;94.50;;;;;;4940602;29;20039;-85
2021/11/25 01:20:54;;;;;;;5.97;2.35;;;2.40;94.50;;;;;;4944523;29;20051;-85
2021/11/25 01:23:24;;;;;;;4.13;2.80;;;2.50;94.60;;;;;;4943157;29;20051;-86
2021/11/25 01:25:51;;;;;;;6.00;2.15;;;2.40;94.50;;;;;;4944333;29;20040;-85
2021/11/25 01:28:21;;;;;;;4.93;2.22;;;2.40;94.50;;;;;;4945163;29;20488;-85
2021/11/25 01:30:49;;;;;;;5.25;2.85;;;2.40;94.60;;;;;;4943351;29;20082;-85
2021/11/25 01:33:17;;;;;;;4.20;2.95;;;2.40;94.60;;;;;;4944342;29;20086;-86
2021/11/25 01:35:43;;;;;;;3.88;3.38;;;2.40;94.70;;;;;;4937901;29;20474;-85
2021/11/25 01:38:09;;;;;;;8.20;3.72;;;2.40;94.70;;;;;;4939125;29;20043;-86
2021/11/25 01:40:36;;;;;;;9.88;3.00;;;2.30;94.60;;;;;;4940229;29;20146;-86
2021/11/25 01:43:03;;;;;;;7.07;3.47;;;2.30;94.70;;;;;;4938836;29;20039;-86
2021/11/25 01:45:29;;;;;;;6.82;3.55;;;2.30;94.70;;;;;;4945306;29;20051;-86
2021/11/25 01:47:57;;;;;;;7.22;3.90;;;2.30;94.70;;;;;;4940712;29;20047;-86
2021/11/25 01:50:24;;;;;;;8.57;3.78;;;2.30;94.70;;;;;;4955924;29;20117;-86
2021/11/25 01:52:49;;;;;;;11.07;4.63;;;2.20;94.70;;;;;;4940325;29;20044;-86
2021/11/25 01:55:17;;;;;;;8.98;3.80;;;2.20;94.70;;;;;;4939799;29;20054;-86
2021/11/25 01:57:43;;;;;;;15.00;5.40;;;2.20;94.80;;;;;;4940606;29;20050;-87
2021/11/25 02:00:15;;;;;;;9.00;4.63;;;2.10;94.80;;;;;;4956396;29;20039;-87
2021/11/25 02:02:42;;;;;;;9.15;4.93;;;2.10;94.90;;;;;;4939731;29;20118;-86
2021/11/25 02:05:08;;;;;;;19.45;8.27;;;2.00;94.90;;;;;;4956914;29;20479;-86
2021/11/25 02:07:34;;;;;;;13.60;6.28;;;2.00;95.00;;;;;;4940037;29;20035;-86
2021/11/25 02:10:00;;;;;;;12.30;6.10;;;2.00;95.10;;;;;;4939540;29;20039;-86
2021/11/25 02:12:26;;;;;;;17.45;8.10;;;1.90;95.10;;;;;;4939867;29;20035;-86
2021/11/25 02:14:51;;;;;;;18.98;8.13;;;1.90;95.10;;;;;;4957036;29;20591;-86
2021/11/25 02:17:18;;;;;;;15.38;7.30;;;1.90;95.20;;;;;;4939576;29;20035;-87
2021/11/25 02:19:45;;;;;;;14.27;7.82;;;1.90;95.30;;;;;;4956928;29;20035;-87
2021/11/25 02:22:11;;;;;;;20.48;8.60;;;1.90;95.40;;;;;;4939333;29;20039;-86
2021/11/25 02:24:36;;;;;;;17.10;7.82;;;1.90;95.40;;;;;;4956513;28;20050;-87
2021/11/25 02:27:03;;;;;;;23.63;10.68;;;1.90;95.60;;;;;;4939696;29;20122;-86
2021/11/25 02:29:29;;;;;;;21.38;9.82;;;2.00;95.50;;;;;;4939550;29;20489;-86
2021/11/25 02:31:55;;;;;;;15.73;7.30;;;2.00;95.50;;;;;;4956498;29;20024;-87
2021/11/25 02:34:21;;;;;;;18.10;7.75;;;2.00;95.50;;;;;;4939134;29;20134;-86
2021/11/25 02:36:48;;;;;;;14.30;7.22;;;2.10;95.50;;;;;;4939340;29;20070;-86
2021/11/25 02:39:13;;;;;;;18.17;8.15;;;2.10;95.60;;;;;;4939677;29;20039;-86
2021/11/25 02:41:40;;;;;;;16.58;7.30;;;2.10;95.60;;;;;;4955357;28;20442;-87
2021/11/25 02:44:06;;;;;;;13.73;6.60;;;2.20;95.80;;;;;;4939465;29;20035;-86
2021/11/25 02:46:32;;;;;;;13.55;7.18;;;2.30;95.60;;;;;;4953718;29;20115;-87
2021/11/25 02:49:02;;;;;;;19.23;7.10;;;2.30;95.60;;;;;;4944692;29;20043;-86
2021/11/25 02:51:31;;;;;;;17.15;8.32;;;2.40;95.60;;;;;;4944714;29;20486;-86
2021/11/25 02:53:58;;;;;;;11.48;5.63;;;2.40;95.50;;;;;;4950747;29;20066;-85
2021/11/25 02:56:27;;;;;;;10.98;5.97;;;2.50;95.40;;;;;;4946949;29;20042;-86
2021/11/25 02:58:54;;;;;;;16.20;6.00;;;2.50;95.40;;;;;;4937138;29;20086;-86
2021/11/25 03:01:23;;;;;;;13.30;5.72;;;2.60;95.40;;;;;;4936080;29;20032;-87
2021/11/25 03:03:49;;;;;;;14.98;6.07;;;2.70;95.30;;;;;;4936305;29;20036;-86
2021/11/25 03:06:16;;;;;;;14.48;7.28;;;2.70;95.20;;;;;;4935886;29;20493;-87
2021/11/25 03:08:42;;;;;;;10.35;5.22;;;2.70;95.20;;;;;;4935649;29;20043;-87
2021/11/25 03:11:10;;;;;;;13.68;4.82;;;2.70;95.10;;;;;;4935571;29;20044;-87
2021/11/25 03:13:39;;;;;;;8.30;4.85;;;2.80;95.10;;;;;;4935651;29;20040;-87
2021/11/25 03:16:06;;;;;;;7.70;4.03;;;2.80;95.00;;;;;;4935532;29;20447;-86
2021/11/25 03:18:32;;;;;;;9.25;5.15;;;2.80;95.00;;;;;;4935446;29;20447;-87
2021/11/25 03:20:58;;;;;;;8.18;3.95;;;2.80;95.00;;;;;;4937120;29;20036;-85
2021/11/25 03:23:30;;;;;;;6.70;3.83;;;2.80;94.90;;;;;;4935557;29;20039;-87
2021/11/25 03:25:58;;;;;;;7.22;4.13;;;2.90;95.00;;;;;;4935747;29;20035;-87
2021/11/25 03:28:24;;;;;;;8.18;4.30;;;2.90;95.00;;;;;;4936689;29;20043;-87
2021/11/25 03:30:54;;;;;;;6.40;3.80;;;3.00;94.90;;;;;;4935677;29;20104;-86
2021/11/25 03:33:22;;;;;;;11.00;4.22;;;3.00;94.90;;;;;;4936008;29;20094;-86
2021/11/25 03:35:49;;;;;;;7.68;4.00;;;3.00;94.80;;;;;;4936491;29;20050;-86
2021/11/25 03:38:15;;;;;;;9.02;5.38;;;3.10;94.70;;;;;;4934987;29;20032;-87
2021/11/25 03:40:41;;;;;;;9.40;4.93;;;3.10;94.50;;;;;;4935380;29;20040;-86
2021/11/25 03:43:06;;;;;;;9.35;4.80;;;3.10;94.50;;;;;;4935230;29;20043;-86
2021/11/25 03:45:32;;;;;;;10.60;5.32;;;3.20;94.50;;;;;;4935185;29;20060;-87
2021/11/25 03:47:58;;;;;;;7.30;3.95;;;3.10;94.50;;;;;;4935361;29;20043;-86
2021/11/25 03:50:24;;;;;;;9.95;5.13;;;3.20;94.50;;;;;;4936568;29;20111;-86
2021/11/25 03:52:50;;;;;;;8.80;4.95;;;3.20;94.40;;;;;;4935241;29;20423;-87
2021/11/25 03:55:18;;;;;;;8.48;4.32;;;3.20;94.30;;;;;;4935389;29;20047;-86
2021/11/25 03:57:45;;;;;;;11.25;5.68;;;3.20;94.20;;;;;;4935192;29;20087;-87
2021/11/25 04:00:14;;;;;;;7.78;5.10;;;3.20;94.20;;;;;;4935279;29;20043;-86
2021/11/25 04:02:44;;;;;;;12.10;5.25;;;3.30;94.20;;;;;;4936380;29;20075;-87
2021/11/25 04:05:11;;;;;;;5.80;3.80;;;3.20;94.10;;;;;;4935533;29;20059;-87
2021/11/25 04:07:37;;;;;;;10.95;4.35;;;3.30;94.10;;;;;;4935139;29;20079;-86
2021/11/25 04:10:05;;;;;;;10.98;5.03;;;3.30;94.10;;;;;;4935436;29;20088;-86
2021/11/25 04:12:30;;;;;;;10.35;4.43;;;3.20;94.10;;;;;;4935195;29;20036;-87
2021/11/25 04:14:56;;;;;;;11.45;4.47;;;3.30;94.10;;;;;;4936480;29;20074;-87
2021/11/25 04:17:23;;;;;;;9.57;4.20;;;3.30;94.10;;;;;;4944161;29;20107;-87
2021/11/25 04:19:50;;;;;;;8.98;5.30;;;3.30;94.00;;;;;;4950069;29;20060;-86
2021/11/25 04:22:21;;;;;;;9.80;3.95;;;3.30;94.00;;;;;;4948258;29;20035;-85
2021/11/25 04:24:48;;;;;;;8.43;4.05;;;3.40;93.90;;;;;;4935610;29;20486;-86
2021/11/25 04:27:14;;;;;;;7.05;4.25;;;3.30;93.90;;;;;;4934909;29;20036;-87
2021/11/25 04:29:43;;;;;;;8.95;4.25;;;3.40;93.90;;;;;;4938927;29;20043;-86
2021/11/25 04:37:41;;;;;;;6.55;3.90;;;3.40;93.80;;;;;;4936054;29;20126;-87
2021/11/25 04:40:08;;;;;;;8.45;3.63;;;3.40;93.80;;;;;;4935152;29;20031;-87
2021/11/25 04:42:33;;;;;;;8.45;4.68;;;3.40;93.60;;;;;;4936331;29;20165;-86
2021/11/25 04:44:59;;;;;;;7.40;4.80;;;3.40;93.60;;;;;;4934950;29;20479;-87
2021/11/25 04:47:25;;;;;;;11.55;4.60;;;3.40;93.70;;;;;;4934931;29;20067;-86
2021/11/25 04:49:51;;;;;;;8.23;4.05;;;3.40;93.70;;;;;;4935849;29;20566;-87
2021/11/25 04:52:16;;;;;;;10.93;5.53;;;3.50;93.70;;;;;;4938022;29;20516;-86
2021/11/25 04:54:42;;;;;;;8.15;4.65;;;3.50;93.60;;;;;;4938728;29;20044;-87
2021/11/25 04:57:08;;;;;;;13.85;6.22;;;3.50;93.50;;;;;;4938344;29;20042;-87
2021/11/25 04:59:34;;;;;;;14.60;6.32;;;3.50;93.50;;;;;;4938131;29;20066;-87
2021/11/25 05:01:59;;;;;;;18.45;6.78;;;3.60;93.60;;;;;;4939525;29;20062;-87
2021/11/25 05:04:25;;;;;;;13.00;7.25;;;3.60;93.50;;;;;;4937832;29;20105;-86
2021/11/25 05:06:51;;;;;;;18.02;7.65;;;3.60;93.50;;;;;;4938012;29;20383;-87
2021/11/25 05:09:18;;;;;;;17.17;7.95;;;3.60;93.40;;;;;;4937903;29;20138;-86
2021/11/25 05:11:44;;;;;;;15.90;6.80;;;3.60;93.30;;;;;;4938055;29;20471;-86
2021/11/25 05:14:09;;;;;;;17.02;8.80;;;3.60;93.40;;;;;;4937695;29;20051;-86
2021/11/25 05:16:35;;;;;;;15.18;6.05;;;3.60;93.50;;;;;;4937808;29;20043;-86
2021/11/25 05:19:01;;;;;;;15.02;6.40;;;3.60;93.50;;;;;;4937401;29;20562;-87
2021/11/25 05:21:27;;;;;;;10.75;6.18;;;3.60;93.40;;;;;;4937441;29;20042;-87
2021/11/25 05:23:53;;;;;;;13.82;6.07;;;3.70;93.40;;;;;;4938979;29;20044;-86
2021/11/25 05:26:18;;;;;;;13.45;7.93;;;3.70;93.20;;;;;;4938852;29;20418;-87
2021/11/25 05:28:44;;;;;;;12.38;8.23;;;3.70;93.10;;;;;;4937341;29;20102;-87
2021/11/25 05:31:10;;;;;;;13.85;6.30;;;3.70;93.00;;;;;;4937793;29;20035;-86
2021/11/25 05:33:36;;;;;;;13.57;6.35;;;3.60;92.90;;;;;;4938351;29;20032;-87
2021/11/25 05:36:02;;;;;;;15.07;6.50;;;3.60;93.00;;;;;;4937075;29;20036;-86
2021/11/25 05:38:28;;;;;;;13.65;7.25;;;3.60;93.00;;;;;;4937366;29;20091;-86
2021/11/25 05:40:53;;;;;;;10.27;6.22;;;3.60;93.10;;;;;;4937173;29;20040;-87
2021/11/25 05:43:19;;;;;;;13.75;6.72;;;3.60;93.10;;;;;;4940243;29;20039;-86
2021/11/25 05:45:46;;;;;;;12.57;5.82;;;3.70;93.10;;;;;;4947017;29;20138;-87
2021/11/25 05:48:12;;;;;;;25.10;7.28;;;3.70;93.20;;;;;;4948595;29;20043;-86
2021/11/25 05:50:38;;;;;;;12.45;7.63;;;3.70;93.10;;;;;;4946342;29;20035;-87
2021/11/25 05:53:03;;;;;;;13.35;7.80;;;3.70;93.10;;;;;;4937617;29;20503;-86
2021/11/25 05:55:32;;;;;;;16.05;6.32;;;3.70;93.10;;;;;;4938433;29;20075;-86
2021/11/25 05:57:59;;;;;;;13.07;6.65;;;3.80;93.10;;;;;;4937064;29;20031;-86
2021/11/25 06:00:25;;;;;;;12.40;6.07;;;3.80;93.00;;;;;;4936801;29;20554;-87
2021/11/25 06:02:51;;;;;;;14.10;7.65;;;3.80;92.90;;;;;;4936719;29;20043;-87
2021/11/25 06:05:20;;;;;;;15.38;6.43;;;3.80;92.90;;;;;;4936443;29;20126;-87
2021/11/25 06:07:47;;;;;;;14.60;6.85;;;3.80;92.90;;;;;;4936434;29;20559;-87
2021/11/25 06:10:15;;;;;;;11.73;6.18;;;3.80;92.90;;;;;;4935839;29;20043;-88
2021/11/25 06:12:41;;;;;;;12.18;5.93;;;3.80;92.80;;;;;;4935571;29;20436;-86
2021/11/25 06:15:08;;;;;;;10.00;5.47;;;3.80;92.90;;;;;;4936336;29;20082;-86
2021/11/25 06:17:34;;;;;;;10.63;5.47;;;3.80;92.80;;;;;;4936182;29;20068;-87
2021/11/25 06:20:00;;;;;;;11.90;6.60;;;3.80;92.90;;;;;;4937106;29;20040;-87
2021/11/25 06:22:26;;;;;;;13.43;6.88;;;3.90;93.20;;;;;;4936206;29;20035;-87
2021/11/25 06:24:51;;;;;;;12.73;6.03;;;3.90;93.30;;;;;;4935603;29;20047;-87
2021/11/25 06:27:18;;;;;;;16.60;7.78;;;4.00;93.00;;;;;;4935046;29;20036;-87
2021/11/25 06:29:44;;;;;;;12.90;8.18;;;4.10;93.00;;;;;;4934341;29;20044;-87
2021/11/25 06:32:10;;;;;;;17.83;6.90;;;4.20;92.80;;;;;;4935570;29;20091;-88
2021/11/25 06:34:36;;;;;;;11.82;6.18;;;4.20;92.70;;;;;;4934384;29;20047;-87
2021/11/25 06:37:02;;;;;;;17.70;7.93;;;4.30;92.80;;;;;;4934838;29;20127;-86
2021/11/25 06:39:27;;;;;;;12.15;6.20;;;4.40;92.80;;;;;;4934750;29;20036;-86
2021/11/25 06:41:53;;;;;;;12.80;6.30;;;4.50;92.70;;;;;;4935971;29;20087;-87
2021/11/25 06:44:19;;;;;;;12.50;7.18;;;4.60;92.40;;;;;;4936718;29;20479;-87
2021/11/25 06:46:45;;;;;;;11.45;6.55;;;4.60;92.20;;;;;;4934505;29;20071;-86
2021/11/25 06:49:11;;;;;;;11.45;6.40;;;4.60;92.10;;;;;;4928547;29;20066;-88
2021/11/25 06:51:40;;;;;;;10.70;6.97;;;4.60;92.40;;;;;;4924197;29;20483;-87
2021/11/25 06:54:05;;;;;;;9.93;5.53;;;4.70;92.20;;;;;;4926171;29;20058;-87
2021/11/25 06:56:31;;;;;;;9.85;5.65;;;4.70;92.20;;;;;;4925495;29;20153;-88
2021/11/25 06:58:57;;;;;;;14.88;6.85;;;4.80;92.10;;;;;;4924207;29;20059;-87
2021/11/25 07:01:26;;;;;;;15.30;7.88;;;4.80;92.00;;;;;;4926277;29;20060;-88
2021/11/25 07:03:52;;;;;;;10.32;6.10;;;4.80;92.00;;;;;;4925757;29;20044;-86
2021/11/25 07:06:18;;;;;;;12.02;6.72;;;4.90;92.00;;;;;;4924014;29;20097;-86
2021/11/25 07:08:43;;;;;;;13.52;7.20;;;4.90;92.00;;;;;;4927275;29;20103;-87
2021/11/25 07:11:09;;;;;;;18.33;7.43;;;4.90;91.90;;;;;;4925768;29;20230;-88
2021/11/25 07:13:35;;;;;;;13.13;7.43;;;5.00;91.90;;;;;;4925409;29;20037;-87
2021/11/25 07:16:01;;;;;;;14.07;6.97;;;5.00;91.80;;;;;;4929262;29;20074;-86
2021/11/25 07:18:27;;;;;;;11.73;5.50;;;5.10;91.80;;;;;;4928721;29;20048;-87
2021/11/25 07:20:53;;;;;;;16.70;7.10;;;5.20;91.90;;;;;;4927410;29;20123;-86
2021/11/25 07:23:19;;;;;;;17.02;7.25;;;5.20;91.80;;;;;;4926238;29;20143;-86
2021/11/25 07:25:44;;;;;;;14.88;7.40;;;5.30;91.70;;;;;;4925307;29;20035;-87
2021/11/25 07:28:10;;;;;;;11.32;6.28;;;5.40;91.50;;;;;;4924507;29;20067;-87
2021/11/25 07:30:36;;;;;;;12.00;7.28;;;5.40;91.40;;;;;;4926312;29;20044;-87
2021/11/25 07:33:02;;;;;;;13.80;6.90;;;5.40;91.30;;;;;;4926781;29;20036;-86
2021/11/25 07:35:28;;;;;;;12.05;7.40;;;5.50;91.40;;;;;;4922581;29;20036;-87
2021/11/25 07:37:56;;;;;;;12.18;7.00;;;5.50;91.20;;;;;;4927119;29;20535;-86
2021/11/25 07:40:23;;;;;;;9.48;5.75;;;5.60;91.20;;;;;;4929262;29;20044;-86
2021/11/25 07:42:51;;;;;;;10.35;6.38;;;5.60;91.20;;;;;;4923530;29;20126;-87
2021/11/25 07:45:17;;;;;;;15.50;8.50;;;5.70;91.10;;;;;;4919251;29;20137;-86
2021/11/25 07:47:43;;;;;;;13.93;6.57;;;5.80;91.00;;;;;;4916242;29;20479;-86
2021/11/25 07:50:12;;;;;;;17.42;9.32;;;5.90;90.90;;;;;;4916360;29;20126;-87
2021/11/25 07:52:39;;;;;;;10.68;6.57;;;5.90;90.70;;;;;;4916040;29;20114;-85
2021/11/25 07:55:10;;;;;;;16.13;8.85;;;6.00;90.60;;;;;;4917203;29;20071;-86
2021/11/25 07:57:40;;;;;;;13.27;7.40;;;6.00;90.40;;;;;;4916180;29;20040;-86
2021/11/25 08:00:16;;;;;;;11.60;6.30;;;6.00;90.20;;;;;;4916438;29;20048;-86
2021/11/25 08:02:48;;;;;;;10.90;7.32;;;6.00;90.30;;;;;;4917584;29;20073;-88
2021/11/25 08:05:17;;;;;;;11.68;6.75;;;6.00;90.30;;;;;;4920808;29;20047;-87
2021/11/25 08:07:52;;;;;;;11.90;7.68;;;6.10;90.30;;;;;;4921171;29;20083;-88
2021/11/25 08:10:23;;;;;;;21.73;7.88;;;6.10;90.00;;;;;;4917819;29;20039;-88
2021/11/25 08:12:54;;;;;;;16.23;7.35;;;6.20;89.40;;;;;;4914679;29;20043;-86
2021/11/25 08:15:20;;;;;;;17.17;8.90;;;6.20;89.50;;;;;;4915790;29;20461;-87
2021/11/25 08:17:48;;;;;;;11.40;8.07;;;6.20;89.30;;;;;;4915791;29;20076;-86
2021/11/25 08:20:16;;;;;;;17.52;9.02;;;6.20;89.40;;;;;;4915848;29;20107;-87
2021/11/25 08:22:42;;;;;;;19.45;11.38;;;6.20;88.30;;;;;;4915930;29;20036;-86
2021/11/25 08:25:08;;;;;;;18.60;9.45;;;6.20;88.50;;;;;;4918801;29;20123;-88
2021/11/25 08:27:36;;;;;;;17.33;8.50;;;6.20;88.20;;;;;;4919257;29;20044;-86
2021/11/25 08:30:05;;;;;;;10.57;6.13;;;6.20;88.30;;;;;;4919298;29;20395;-87
2021/11/25 08:32:31;;;;;;;14.50;6.95;;;6.30;88.90;;;;;;4918952;29;20102;-87
2021/11/25 08:34:57;;;;;;;13.32;7.25;;;6.30;88.30;;;;;;4918651;29;20044;-86
2021/11/25 08:37:26;;;;;;;22.80;8.73;;;6.30;86.90;;;;;;4918770;29;20044;-86
2021/11/25 08:39:54;;;;;;;14.80;6.90;;;6.40;87.40;;;;;;4918567;29;20040;-86
2021/11/25 08:42:20;;;;;;;14.35;5.85;;;6.40;87.30;;;;;;4918778;29;20131;-86
2021/11/25 08:44:49;;;;;;;10.10;5.93;;;6.50;87.50;;;;;;4921063;29;20096;-87
2021/11/25 08:47:18;;;;;;;10.68;5.85;;;6.50;87.00;;;;;;4925274;29;20035;-87
2021/11/25 08:49:44;;;;;;;13.52;7.38;;;6.50;86.60;;;;;;4924924;29;20032;-87
2021/11/25 08:52:10;;;;;;;14.57;7.18;;;6.60;86.50;;;;;;4925663;29;20117;-87
2021/11/25 08:54:36;;;;;;;18.70;6.93;;;6.60;86.30;;;;;;4922540;29;20044;-87
2021/11/25 08:57:02;;;;;;;12.65;6.22;;;6.60;85.30;;;;;;4939189;29;20043;-88
2021/11/25 08:59:28;;;;;;;12.32;5.85;;;6.60;85.40;;;;;;4922507;29;20067;-87
2021/11/25 09:01:54;;;;;;;10.35;5.68;;;6.70;85.30;;;;;;4921788;29;20039;-87
2021/11/25 09:04:20;;;;;;;9.57;5.75;;;6.70;84.90;;;;;;4940049;29;20069;-87
2021/11/25 09:06:49;;;;;;;11.25;6.30;;;6.70;84.50;;;;;;4921863;29;20498;-86
2021/11/25 09:09:15;;;;;;;8.23;5.70;;;6.70;84.70;;;;;;4921492;29;20139;-86
2021/11/25 09:11:43;;;;;;;15.85;6.50;;;6.80;84.30;;;;;;4922132;29;20042;-87
2021/11/25 09:14:09;;;;;;;8.90;4.93;;;6.80;84.40;;;;;;4921536;29;20471;-87
2021/11/25 09:16:35;;;;;;;9.15;5.60;;;6.80;84.10;;;;;;4921565;29;20078;-87
2021/11/25 09:19:01;;;;;;;10.60;5.35;;;6.90;84.20;;;;;;4921122;29;20040;-87
2021/11/25 09:21:30;;;;;;;9.75;5.82;;;6.90;84.00;;;;;;4921093;29;20046;-87
2021/11/25 09:24:06;;;;;;;11.70;6.57;;;6.90;83.80;;;;;;4921154;29;20086;-87
2021/11/25 09:26:34;;;;;;;10.80;5.82;;;7.00;83.80;;;;;;4921196;29;20043;-87
2021/11/25 09:29:00;;;;;;;10.52;6.13;;;7.10;83.80;;;;;;4921119;29;20036;-87
2021/11/25 09:31:28;;;;;;;8.90;5.40;;;7.20;83.60;;;;;;4937678;29;20045;-91
2021/11/25 09:34:03;;;;;;;8.40;5.63;;;7.30;83.50;;;;;;4941461;29;20168;-91
2021/11/25 09:36:36;;;;;;;12.80;5.95;;;7.40;83.40;;;;;;4939548;29;20096;-91
2021/11/25 09:39:06;;;;;;;10.52;5.75;;;7.40;83.00;;;;;;4941233;29;20454;-90
2021/11/25 09:41:33;;;;;;;9.02;5.43;;;7.60;82.90;;;;;;4940933;29;20043;-91
2021/11/25 09:44:05;;;;;;;10.13;5.82;;;7.60;82.50;;;;;;4940434;29;20027;-91
2021/11/25 09:47:00;;;;;;;12.98;6.72;;;7.70;81.70;;;;;;4955508;29;20047;-92
2021/11/25 09:49:28;;;;;;;11.80;7.80;;;7.70;80.50;;;;;;4940898;29;20126;-91
2021/11/25 09:51:54;;;;;;;15.13;6.45;;;7.60;80.70;;;;;;4957998;29;20457;-91
2021/11/25 09:54:23;;;;;;;13.90;6.43;;;7.50;80.70;;;;;;4957179;29;20054;-91
2021/11/25 09:56:52;;;;;;;8.43;5.47;;;7.50;81.50;;;;;;4925078;29;20051;-92
2021/11/25 09:59:21;;;;;;;10.70;6.22;;;7.60;81.40;;;;;;4940072;29;20454;-90
2021/11/25 10:01:48;;;;;;;11.85;5.63;;;7.60;80.80;;;;;;4941050;29;20039;-91
2021/11/25 10:04:14;;;;;;;9.55;5.00;;;7.60;80.50;;;;;;4940241;29;20035;-90
2021/11/25 10:06:59;;;;;;;14.10;5.90;;;7.60;80.90;;;;;;4939912;29;20043;-90
2021/11/25 10:09:36;;;;;;;7.75;5.95;;;7.70;80.90;;;;;;4920834;29;20447;-90
2021/11/25 10:12:37;;;;;;;8.90;4.82;;;7.80;80.40;;;;;;4939393;29;20035;-88
2021/11/25 10:15:22;;;;;;;10.07;5.38;;;7.90;78.80;;;;;;4939262;29;20063;-87
2021/11/25 10:17:51;;;;;;;11.75;6.63;;;7.90;78.90;;;;;;4946840;29;20048;-88
2021/11/25 10:20:20;;;;;;;13.65;7.55;;;7.90;78.70;;;;;;4963369;29;20035;-86
2021/11/25 10:23:02;;;;;;;9.35;5.63;;;7.90;78.40;;;;;;4940309;29;20098;-86
2021/11/25 10:25:45;;;;;;;12.95;5.70;;;7.90;78.80;;;;;;4936483;29;20515;-87
2021/11/25 10:28:21;;;;;;;16.20;6.50;;;8.00;78.70;;;;;;4930697;29;20031;-87
2021/11/25 10:30:50;;;;;;;11.15;6.30;;;8.00;77.60;;;;;;4939393;29;20133;-88
2021/11/25 10:33:22;;;;;;;19.17;7.78;;;8.00;77.70;;;;;;4926126;29;20036;-88
2021/11/25 10:36:16;;;;;;;13.07;6.18;;;7.90;75.90;;;;;;4954969;29;20047;-89
2021/11/25 10:39:03;;;;;;;9.63;5.53;;;7.90;76.80;;;;;;4929512;29;20094;-89
2021/11/25 10:41:31;;;;;;;8.90;5.72;;;7.90;76.80;;;;;;4933723;29;20090;-88
2021/11/25 10:44:23;;;;;;;9.90;5.40;;;7.90;76.50;;;;;;4923504;29;20060;-88
2021/11/25 10:47:11;;;;;;;12.10;5.47;;;7.90;76.30;;;;;;4944308;29;20047;-88
2021/11/25 10:49:50;;;;;;;9.88;4.88;;;7.90;75.70;;;;;;4944543;29;20040;-88
2021/11/25 10:52:28;;;;;;;9.10;5.65;;;7.90;75.40;;;;;;4937842;29;20043;-89
2021/11/25 10:55:09;;;;;;;6.55;4.55;;;7.90;75.70;;;;;;4934092;29;20115;-89
2021/11/25 10:57:40;;;;;;;10.00;4.68;;;7.90;75.30;;;;;;4933409;29;20513;-89
2021/11/25 11:00:13;;;;;;;9.30;5.13;;;7.90;75.40;;;;;;4933101;29;20494;-89
2021/11/25 11:02:46;;;;;;;10.18;5.30;;;8.00;75.70;;;;;;4928855;29;20107;-87
2021/11/25 11:05:21;;;;;;;8.82;5.13;;;8.00;75.20;;;;;;4934911;29;20050;-88
2021/11/25 11:07:48;;;;;;;7.43;4.78;;;8.00;75.30;;;;;;4928759;29;20047;-87
2021/11/25 11:10:28;;;;;;;7.60;4.40;;;8.00;75.40;;;;;;4929542;29;20440;-87
2021/11/25 11:13:16;;;;;;;7.68;5.20;;;8.10;74.80;;;;;;4932990;29;20074;-89
2021/11/25 11:19:00;;;;;;;10.15;5.78;;;8.20;72.10;;;;;;4923168;29;20043;-89
2021/11/25 11:21:31;;;;;;;7.90;5.10;;;8.00;70.90;;;;;;4933808;29;20036;-89
2021/11/25 11:23:59;;;;;;;12.20;6.47;;;7.90;70.60;;;;;;4917453;29;20535;-86
2021/11/25 11:26:25;;;;;;;8.73;6.22;;;7.80;69.10;;;;;;4930960;29;20099;-88
2021/11/25 11:29:11;;;;;;;8.63;5.35;;;7.70;69.30;;;;;;4934405;29;20406;-87
2021/11/25 11:31:42;;;;;;;13.25;7.32;;;7.60;69.60;;;;;;4932558;29;20052;-92
2021/11/25 11:34:10;;;;;;;8.05;5.03;;;7.60;68.90;;;;;;4916879;29;20047;-88
2021/11/25 11:36:42;;;;;;;11.82;6.07;;;7.70;68.00;;;;;;4932948;29;20043;-88
2021/11/25 11:39:13;;;;;;;10.55;5.63;;;7.60;68.50;;;;;;4934907;29;20058;-88
2021/11/25 11:41:41;;;;;;;9.55;5.20;;;7.60;68.60;;;;;;4919190;29;20043;-88
2021/11/25 11:44:07;;;;;;;9.38;6.15;;;7.50;68.10;;;;;;4930487;29;20510;-88
2021/11/25 11:46:36;;;;;;;8.45;5.85;;;7.50;67.50;;;;;;4955962;29;20079;-88
2021/11/25 11:49:06;;;;;;;6.25;4.57;;;7.40;67.70;;;;;;4966799;29;20074;-90
2021/11/25 11:51:33;;;;;;;10.43;4.60;;;7.40;68.40;;;;;;4933422;29;20048;-88
2021/11/25 11:54:02;;;;;;;5.47;4.07;;;7.30;68.00;;;;;;4949885;29;20697;-88
2021/11/25 11:56:39;;;;;;;12.75;5.47;;;7.30;68.80;;;;;;4914170;29;20055;-89
2021/11/25 11:59:09;;;;;;;13.10;7.63;;;7.30;69.10;;;;;;4935973;29;20114;-89
2021/11/25 12:01:37;;;;;;;13.95;6.20;;;7.40;68.80;;;;;;4955364;29;20047;-89
2021/11/25 12:04:08;;;;;;;8.50;5.22;;;7.40;68.00;;;;;;4939992;29;20068;-90
2021/11/25 12:06:48;;;;;;;5.85;3.83;;;7.30;69.00;;;;;;4953975;29;20044;-89
2021/11/25 12:09:26;;;;;;;9.50;4.85;;;7.30;69.30;;;;;;4926130;29;20043;-91
2021/11/25 12:12:07;;;;;;;10.65;5.35;;;7.40;69.30;;;;;;4932004;29;20443;-89
2021/11/25 12:14:34;;;;;;;8.13;4.82;;;7.40;69.40;;;;;;4941342;29;20054;-89
2021/11/25 12:17:26;;;;;;;10.00;5.13;;;7.40;69.10;;;;;;4940419;29;20115;-90
2021/11/25 12:19:51;;;;;;;10.23;6.40;;;7.40;69.80;;;;;;4929563;29;20489;-87
2021/11/25 12:22:22;;;;;;;9.73;5.22;;;7.40;68.90;;;;;;4948452;29;20039;-89
2021/11/25 12:25:09;;;;;;;7.05;4.88;;;7.40;68.70;;;;;;4925688;28;20039;-87
2021/11/25 12:27:40;;;;;;;9.88;5.07;;;7.40;68.70;;;;;;4938457;29;20091;-89
2021/11/25 12:30:17;;;;;;;8.88;4.85;;;7.30;69.10;;;;;;4938399;29;20044;-91
2021/11/25 12:32:50;;;;;;;8.48;5.32;;;7.40;69.30;;;;;;4938440;29;20193;-92
2021/11/25 12:35:50;;;;;;;9.02;4.80;;;7.40;69.30;;;;;;4955732;29;20051;-91
2021/11/25 12:38:17;;;;;;;13.82;6.55;;;7.40;69.50;;;;;;4956195;29;20047;-90
2021/11/25 12:40:51;;;;;;;8.35;5.75;;;7.40;69.50;;;;;;4940837;29;20133;-89
2021/11/25 12:43:27;;;;;;;7.63;4.60;;;7.40;69.10;;;;;;4924198;29;20043;-89
2021/11/25 12:45:57;;;;;;;14.32;4.57;;;7.40;69.30;;;;;;4940836;29;20154;-89
2021/11/25 12:48:32;;;;;;;7.90;3.97;;;7.30;69.10;;;;;;4936599;29;20501;-89
2021/11/25 12:51:22;;;;;;;16.95;4.80;;;7.30;68.90;;;;;;4934851;29;20391;-90
2021/11/25 12:54:00;;;;;;;8.80;4.32;;;7.20;69.00;;;;;;4924005;29;20437;-89
2021/11/25 12:56:32;;;;;;;9.50;4.72;;;7.20;68.90;;;;;;4927344;29;20052;-92
2021/11/25 12:59:12;;;;;;;9.25;4.70;;;7.20;69.00;;;;;;4942418;29;20058;-92
2021/11/25 13:02:01;;;;;;;7.60;4.07;;;7.20;69.40;;;;;;4940213;29;20059;-92
2021/11/25 13:04:35;;;;;;;12.00;6.30;;;7.10;69.30;;;;;;4942925;29;20035;-92
2021/11/25 13:07:18;;;;;;;9.10;4.53;;;7.10;69.30;;;;;;4962435;29;20045;-93